Date,TemperatureHighF,TemperatureAvgF,TemperatureLowF,DewpointHighF,DewpointAvgF,DewpointLowF,HumidityHigh,HumidityAvg,HumidityLow,PressureMaxIn,PressureMinIn,WindSpeedMaxMPH,WindSpeedAvgMPH,GustSpeedMaxMPH,PrecipitationSumIn
2013-9-1,78,66,57,60,57,55,96,74,51,29.86,29.76,6,1,10,0.03
2013-9-2,77,68,60,63,60,56,93,77,55,29.91,29.82,5,1,11,0.01
2013-9-3,69,63,60,63,60,58,96,90,76,30.02,29.91,7,1,9,0.09
2013-9-4,73,64,57,63,60,57,98,88,68,30.04,29.97,6,1,15,0.01
2013-9-5,66,62,58,63,61,57,98,95,89,30.03,29.89,5,1,9,0.42
2013-9-6,69,64,60,63,61,59,98,92,80,30.07,29.88,4,1,10,0.01
2013-9-7,73,66,62,64,61,59,97,84,65,30.07,30.00,9,2,13,0.02
2013-9-8,75,65,57,63,60,56,98,86,68,30.08,29.99,5,1,7,0.00
2013-9-9,75,66,56,63,60,55,97,82,62,30.05,29.96,7,1,13,0.00
2013-9-10,79,68,58,65,60,57,97,80,56,29.99,29.88,6,1,10,0.00
2013-9-11,88,74,60,64,60,57,92,65,35,29.95,29.86,7,1,9,0.00
2013-9-12,83,72,62,65,60,58,89,69,48,29.96,29.84,8,1,10,0.00
2013-9-13,70,63,57,61,59,56,95,85,74,29.94,29.83,5,1,8,0.00
2013-9-14,71,62,59,63,60,58,97,91,75,29.87,29.73,6,1,9,0.00
2013-9-15,65,60,59,61,59,58,99,96,87,29.77,29.67,6,1,11,0.16
2013-9-16,65,60,58,60,58,56,97,92,80,29.88,29.75,7,2,13,0.37
2013-9-17,64,58,53,57,54,51,95,87,74,29.88,29.80,5,1,10,0.00
2013-9-18,67,59,53,55,52,49,95,80,54,30.05,29.89,7,1,11,0.00
2013-9-19,75,63,55,54,51,44,90,67,34,30.05,29.73,7,1,9,0.00
2013-9-20,72,62,54,57,52,49,95,71,46,29.73,29.54,6,1,8,0.06
2013-9-21,66,60,56,56,54,51,96,82,59,29.68,29.60,7,2,8,0.02
2013-9-22,58,56,53,54,53,52,97,91,84,29.64,29.50,13,3,20,0.51
2013-9-23,61,55,51,53,50,48,95,83,65,29.92,29.64,11,3,16,0.11
2013-9-24,58,53,49,50,48,47,93,85,69,29.92,29.82,5,0,7,0.00
2013-9-25,63,54,45,52,48,44,97,82,60,29.99,29.85,9,1,13,0.00
2013-9-26,64,54,45,50,47,41,97,79,44,30.09,30.00,12,2,14,0.00
2013-9-27,53,51,50,50,49,47,97,94,83,30.08,29.80,5,1,10,0.35
2013-9-28,57,52,49,55,51,49,98,95,84,29.80,29.26,11,2,19,0.83
2013-9-29,53,51,49,52,50,46,97,95,86,29.46,29.11,11,4,17,0.89
2013-9-30,55,51,49,50,47,44,93,86,78,29.83,29.26,18,5,22,0.17